createdAt,value
2018-04-27T00:00:17.033Z,11.26
2018-04-27T00:00:43.214Z,11.3
2018-04-27T00:01:09.406Z,11.27
2018-04-27T00:01:35.631Z,11.18
2018-04-27T00:02:01.819Z,11.25
2018-04-27T00:02:28.005Z,11.29
2018-04-27T00:02:54.196Z,11.3
2018-04-27T00:03:20.409Z,11.25
2018-04-27T00:03:46.593Z,11.22
2018-04-27T00:04:12.819Z,11.23
2018-04-27T00:04:39.006Z,11.3
2018-04-27T00:05:05.257Z,11.25
2018-04-27T00:05:31.407Z,11.27
2018-04-27T00:05:57.595Z,11.23
2018-04-27T00:06:23.782Z,11.23
2018-04-27T00:06:49.975Z,11.27
2018-04-27T00:07:16.157Z,11.23
2018-04-27T00:07:42.351Z,11.23
2018-04-27T00:08:08.533Z,11.15
2018-04-27T00:08:34.738Z,11.25
2018-04-27T00:09:00.973Z,11.15
2018-04-27T00:09:27.193Z,11.15
2018-04-27T00:09:53.382Z,11.18
2018-04-27T00:10:19.573Z,11.23
2018-04-27T00:10:45.757Z,11.17
2018-04-27T00:11:11.949Z,11.18
2018-04-27T00:11:38.132Z,11.15
2018-04-27T00:12:04.333Z,11.12
2018-04-27T00:12:30.573Z,11.12
2018-04-27T00:12:56.785Z,11.14
2018-04-27T00:13:22.972Z,11.14
2018-04-27T00:13:49.199Z,11.11
2018-04-27T00:14:15.392Z,11.14
2018-04-27T00:14:41.604Z,11.17
2018-04-27T00:15:07.796Z,11.23
2018-04-27T00:15:33.980Z,11.18
2018-04-27T00:16:00.167Z,11.18
2018-04-27T00:16:26.352Z,11.19
2018-04-27T00:16:52.580Z,11.17
2018-04-27T00:17:18.762Z,11.15
2018-04-27T00:17:44.951Z,11.12
2018-04-27T00:18:11.176Z,11.22
2018-04-27T00:18:37.361Z,11.17
2018-04-27T00:19:03.546Z,11.17
2018-04-27T00:19:29.737Z,11.08
2018-04-27T00:19:55.928Z,11.14
2018-04-27T00:20:22.142Z,11.15
2018-04-27T00:20:48.327Z,11.05
2018-04-27T00:21:14.518Z,11.05
2018-04-27T00:21:40.706Z,11.17
2018-04-27T00:22:06.894Z,11.12
2018-04-27T00:22:33.084Z,11.18
2018-04-27T00:22:59.276Z,11.15
2018-04-27T00:23:25.466Z,11.19
2018-04-27T00:23:51.656Z,11.23
2018-04-27T00:24:17.857Z,11.17
2018-04-27T00:24:44.058Z,11.14
2018-04-27T00:25:10.251Z,11.22
2018-04-27T00:25:36.428Z,11.18
2018-04-27T00:26:02.626Z,11.26
2018-04-27T00:26:28.808Z,11.17
2018-04-27T00:26:55.027Z,11.12
2018-04-27T00:27:21.222Z,11.15
2018-04-27T00:27:47.406Z,11.14
2018-04-27T00:28:13.591Z,11.11
2018-04-27T00:28:39.788Z,11.22
2018-04-27T00:29:05.975Z,11.14
2018-04-27T00:29:32.162Z,11.18
2018-04-27T00:29:58.359Z,11.17
2018-04-27T00:30:24.548Z,11.15
2018-04-27T00:30:50.777Z,11.19
2018-04-27T00:31:16.959Z,11.23
2018-04-27T00:31:43.147Z,11.23
2018-04-27T00:32:09.342Z,11.19
2018-04-27T00:32:35.523Z,11.27
2018-04-27T00:33:01.715Z,11.19
2018-04-27T00:33:27.898Z,11.19
2018-04-27T00:33:54.092Z,11.22
2018-04-27T00:34:20.284Z,11.26
2018-04-27T00:34:46.474Z,11.25
2018-04-27T00:35:12.660Z,11.18
2018-04-27T00:35:38.843Z,11.17
2018-04-27T00:36:05.030Z,11.22
2018-04-27T00:36:31.212Z,11.18
2018-04-27T00:36:57.404Z,11.18
2018-04-27T00:37:23.585Z,11.18
2018-04-27T00:37:49.778Z,11.07
2018-04-27T00:38:15.965Z,11.08
2018-04-27T00:38:42.152Z,11.04
2018-04-27T00:39:08.333Z,11.04
2018-04-27T00:39:34.526Z,11.04
2018-04-27T00:40:00.707Z,10.96
2018-04-27T00:40:26.939Z,11.04
2018-04-27T00:40:53.125Z,11
2018-04-27T00:41:19.309Z,11.02
2018-04-27T00:41:45.503Z,11
2018-04-27T00:42:11.684Z,11
2018-04-27T00:42:37.885Z,11
2018-04-27T00:43:04.070Z,11.05
2018-04-27T00:43:30.259Z,11
2018-04-27T00:43:56.448Z,11.1
2018-04-27T00:44:22.638Z,11.11
2018-04-27T00:44:48.858Z,11.1
2018-04-27T00:45:15.078Z,11.04
2018-04-27T00:45:41.263Z,11.02
2018-04-27T00:46:07.451Z,10.97
2018-04-27T00:46:33.646Z,11.04
2018-04-27T00:46:59.839Z,11.02
2018-04-27T00:47:26.013Z,10.96
2018-04-27T00:47:52.196Z,10.96
2018-04-27T00:48:18.396Z,11.08
2018-04-27T00:48:44.621Z,11
2018-04-27T00:49:10.835Z,11.04
2018-04-27T00:49:37.027Z,11.1
2018-04-27T00:50:03.219Z,11.1
2018-04-27T00:50:29.405Z,11.04
2018-04-27T00:50:55.591Z,11
2018-04-27T00:51:21.780Z,11.1
2018-04-27T00:51:47.965Z,11.02
2018-04-27T00:52:14.154Z,11.02
2018-04-27T00:52:40.337Z,11.11
2018-04-27T00:53:06.562Z,10.97
2018-04-27T00:53:32.753Z,11.04
2018-04-27T00:53:58.960Z,11.02
2018-04-27T00:54:25.124Z,10.96
2018-04-27T00:54:51.310Z,11.02
2018-04-27T00:55:17.532Z,11
2018-04-27T00:55:43.722Z,10.93
2018-04-27T00:56:09.912Z,11.02
2018-04-27T00:56:36.133Z,10.99
2018-04-27T00:57:02.318Z,11
2018-04-27T00:57:28.504Z,10.97
2018-04-27T00:57:54.696Z,11
2018-04-27T00:58:20.875Z,10.89
2018-04-27T00:58:47.069Z,10.97
2018-04-27T00:59:13.258Z,10.96
2018-04-27T00:59:39.472Z,10.96
2018-04-27T01:00:05.663Z,11.02
2018-04-27T01:00:31.915Z,10.97
2018-04-27T01:00:58.131Z,11
2018-04-27T01:01:24.355Z,10.97
2018-04-27T01:01:50.541Z,10.96
2018-04-27T01:02:16.736Z,11.02
2018-04-27T01:02:42.955Z,10.99
2018-04-27T01:03:09.179Z,11.04
2018-04-27T01:03:35.366Z,10.99
2018-04-27T01:04:01.551Z,11
2018-04-27T01:04:27.735Z,10.93
2018-04-27T01:04:53.924Z,11.02
2018-04-27T01:05:20.106Z,10.99
2018-04-27T01:05:46.299Z,10.94
2018-04-27T01:06:12.517Z,10.89
2018-04-27T01:06:38.745Z,10.84
2018-04-27T01:07:04.936Z,10.89
2018-04-27T01:07:31.120Z,10.9
2018-04-27T01:07:57.311Z,10.82
2018-04-27T01:08:23.498Z,10.9
2018-04-27T01:08:49.720Z,10.86
2018-04-27T01:09:15.871Z,10.79
2018-04-27T01:09:42.063Z,10.84
2018-04-27T01:10:08.314Z,10.78
2018-04-27T01:10:34.530Z,10.79
2018-04-27T01:11:00.719Z,10.81
2018-04-27T01:11:26.910Z,10.81
2018-04-27T01:11:53.101Z,10.79
2018-04-27T01:12:19.284Z,10.78
2018-04-27T01:12:45.476Z,10.82
2018-04-27T01:13:11.660Z,10.78
2018-04-27T01:13:37.888Z,10.72
2018-04-27T01:14:04.121Z,10.78
2018-04-27T01:14:30.308Z,10.71
2018-04-27T01:14:56.496Z,10.72
2018-04-27T01:15:22.692Z,10.76
2018-04-27T01:15:48.874Z,10.82
2018-04-27T01:16:15.068Z,10.82
2018-04-27T01:16:41.292Z,10.79
2018-04-27T01:17:07.475Z,10.97
2018-04-27T01:17:33.666Z,10.82
2018-04-27T01:17:59.853Z,10.93
2018-04-27T01:18:26.042Z,10.79
2018-04-27T01:18:52.226Z,10.79
2018-04-27T01:19:18.410Z,10.84
2018-04-27T01:19:44.598Z,10.87
2018-04-27T01:20:10.787Z,10.76
2018-04-27T01:20:36.975Z,10.87
2018-04-27T01:21:03.156Z,10.81
2018-04-27T01:21:29.344Z,10.84
2018-04-27T01:21:55.560Z,10.84
2018-04-27T01:22:21.812Z,10.79
2018-04-27T01:22:47.999Z,10.82
2018-04-27T01:23:14.192Z,10.9
2018-04-27T01:23:40.377Z,10.82
2018-04-27T01:24:06.604Z,10.96
2018-04-27T01:24:32.789Z,10.86
2018-04-27T01:24:58.967Z,10.92
2018-04-27T01:25:25.189Z,10.93
2018-04-27T01:25:51.379Z,10.81
2018-04-27T01:26:17.566Z,10.86
2018-04-27T01:26:43.760Z,10.89
2018-04-27T01:27:10.012Z,10.89
2018-04-27T01:27:36.204Z,10.86
2018-04-27T01:28:02.395Z,10.75
2018-04-27T01:28:28.583Z,10.78
2018-04-27T01:28:54.772Z,10.74
2018-04-27T01:29:20.962Z,10.69
2018-04-27T01:29:47.184Z,10.71
2018-04-27T01:30:13.364Z,10.67
2018-04-27T01:30:39.555Z,10.72
2018-04-27T01:31:05.741Z,10.74
2018-04-27T01:31:31.958Z,10.67
2018-04-27T01:31:58.188Z,10.69
2018-04-27T01:32:24.378Z,10.67
2018-04-27T01:32:50.562Z,10.71
2018-04-27T01:33:16.750Z,10.71
2018-04-27T01:33:42.947Z,10.63
2018-04-27T01:34:09.135Z,10.72
2018-04-27T01:34:35.326Z,10.74
2018-04-27T01:35:01.507Z,10.71
2018-04-27T01:35:27.697Z,10.67
2018-04-27T01:35:53.879Z,10.71
2018-04-27T01:36:20.066Z,10.64
2018-04-27T01:36:46.264Z,10.71
2018-04-27T01:37:12.443Z,10.67
2018-04-27T01:37:38.639Z,10.63
2018-04-27T01:38:04.857Z,10.71
2018-04-27T01:38:31.079Z,10.68
2018-04-27T01:38:57.264Z,10.71
2018-04-27T01:39:23.510Z,10.69
2018-04-27T01:39:49.734Z,10.63
2018-04-27T01:40:15.962Z,10.68
2018-04-27T01:40:42.147Z,10.69
2018-04-27T01:41:08.338Z,10.67
2018-04-27T01:41:34.523Z,10.74
2018-04-27T01:42:00.745Z,10.69
2018-04-27T01:42:26.929Z,10.68
2018-04-27T01:42:53.111Z,10.72
2018-04-27T01:43:19.298Z,10.74
2018-04-27T01:43:45.482Z,10.75
2018-04-27T01:44:11.670Z,10.78
2018-04-27T01:44:37.858Z,10.79
2018-04-27T01:45:04.044Z,10.71
2018-04-27T01:45:30.227Z,10.72
2018-04-27T01:45:56.418Z,10.81
2018-04-27T01:46:22.607Z,10.71
2018-04-27T01:46:48.792Z,10.69
2018-04-27T01:47:15.007Z,10.72
2018-04-27T01:47:41.197Z,10.72
2018-04-27T01:48:07.417Z,10.72
2018-04-27T01:48:33.642Z,10.72
2018-04-27T01:48:59.834Z,10.75
2018-04-27T01:49:26.051Z,10.74
2018-04-27T01:49:52.241Z,10.71
2018-04-27T01:50:18.428Z,10.72
2018-04-27T01:50:44.613Z,10.71
2018-04-27T01:51:10.811Z,10.72
2018-04-27T01:51:36.996Z,10.69
2018-04-27T01:52:03.179Z,10.74
2018-04-27T01:52:29.367Z,10.72
2018-04-27T01:52:55.566Z,10.75
2018-04-27T01:53:21.788Z,10.76
2018-04-27T01:53:47.972Z,10.79
2018-04-27T01:54:14.163Z,10.75
2018-04-27T01:54:40.350Z,10.71
2018-04-27T01:55:06.527Z,10.71
2018-04-27T01:55:32.731Z,10.76
2018-04-27T01:55:58.902Z,10.71
2018-04-27T01:56:25.091Z,10.75
2018-04-27T01:56:51.278Z,10.68
2018-04-27T01:57:17.467Z,10.71
2018-04-27T01:57:43.647Z,10.75
2018-04-27T01:58:09.837Z,10.69
2018-04-27T01:58:36.029Z,10.74
2018-04-27T01:59:02.215Z,10.72
2018-04-27T01:59:28.411Z,10.71
2018-04-27T01:59:54.626Z,10.64
2018-04-27T02:00:20.814Z,10.64
2018-04-27T02:00:46.997Z,10.67
2018-04-27T02:01:13.214Z,10.61
2018-04-27T02:01:39.440Z,10.6
2018-04-27T02:02:05.627Z,10.67
2018-04-27T02:02:31.816Z,10.64
2018-04-27T02:02:57.998Z,10.6
2018-04-27T02:03:24.187Z,10.6
2018-04-27T02:03:50.372Z,10.56
2018-04-27T02:04:16.563Z,10.59
2018-04-27T02:04:42.821Z,10.42
2018-04-27T02:05:09.004Z,10.44
2018-04-27T02:05:35.184Z,10.44
2018-04-27T02:06:01.445Z,10.44
2018-04-27T02:06:27.566Z,10.41
2018-04-27T02:06:53.756Z,10.42
2018-04-27T02:07:19.971Z,10.42
2018-04-27T02:07:46.154Z,10.37
2018-04-27T02:08:12.375Z,10.28
2018-04-27T02:08:38.591Z,10.33
2018-04-27T02:09:04.770Z,10.4
2018-04-27T02:09:30.934Z,10.35
2018-04-27T02:09:57.100Z,10.35
2018-04-27T02:10:23.262Z,10.28
2018-04-27T02:10:49.432Z,10.3
2018-04-27T02:11:15.619Z,10.34
2018-04-27T02:11:41.765Z,10.35
2018-04-27T02:12:07.947Z,10.26
2018-04-27T02:12:34.102Z,10.35
2018-04-27T02:13:00.241Z,10.3
2018-04-27T02:13:26.396Z,10.37
2018-04-27T02:13:52.525Z,10.31
2018-04-27T02:14:18.658Z,10.35
2018-04-27T02:14:44.800Z,10.26
2018-04-27T02:15:10.934Z,10.33
2018-04-27T02:15:37.081Z,10.31
2018-04-27T02:16:03.214Z,10.28
2018-04-27T02:16:29.372Z,10.33
2018-04-27T02:16:55.510Z,10.31
2018-04-27T02:17:21.673Z,10.22
2018-04-27T02:17:47.834Z,10.33
2018-04-27T02:18:13.977Z,10.28
2018-04-27T02:18:40.120Z,10.23
2018-04-27T02:19:06.270Z,10.28
2018-04-27T02:19:32.408Z,10.31
2018-04-27T02:19:58.548Z,10.31
2018-04-27T02:20:24.681Z,10.28
2018-04-27T02:20:50.827Z,10.26
2018-04-27T02:21:16.968Z,10.22
2018-04-27T02:21:43.100Z,10.26
2018-04-27T02:22:09.233Z,10.35
2018-04-27T02:22:35.374Z,10.35
2018-04-27T02:23:01.507Z,10.23
2018-04-27T02:23:27.648Z,10.23
2018-04-27T02:23:53.780Z,10.28
2018-04-27T02:24:19.920Z,10.26
2018-04-27T02:24:46.105Z,10.3
2018-04-27T02:25:12.238Z,10.2
2018-04-27T02:25:38.382Z,10.23
2018-04-27T02:26:04.536Z,10.31
2018-04-27T02:26:30.673Z,10.17
2018-04-27T02:26:56.807Z,10.31
2018-04-27T02:27:22.952Z,10.28
2018-04-27T02:27:49.115Z,10.23
2018-04-27T02:28:15.251Z,10.25
2018-04-27T02:28:41.378Z,10.35
2018-04-27T02:29:07.521Z,10.3
2018-04-27T02:29:33.678Z,10.22
2018-04-27T02:29:59.871Z,10.22
2018-04-27T02:30:26.002Z,10.31
2018-04-27T02:30:52.183Z,10.28
2018-04-27T02:31:18.323Z,10.3
2018-04-27T02:31:44.465Z,10.3
2018-04-27T02:32:10.620Z,10.3
2018-04-27T02:32:36.776Z,10.28
2018-04-27T02:33:02.953Z,10.25
2018-04-27T02:33:29.075Z,10.19
2018-04-27T02:33:55.239Z,10.23
2018-04-27T02:34:21.430Z,10.22
2018-04-27T02:34:47.593Z,10.19
2018-04-27T02:35:13.750Z,10.23
2018-04-27T02:35:39.890Z,10.16
2018-04-27T02:36:06.073Z,10.17
2018-04-27T02:36:32.217Z,10.17
2018-04-27T02:36:58.345Z,10.17
2018-04-27T02:37:24.482Z,10.16
2018-04-27T02:37:50.626Z,10.22
2018-04-27T02:38:16.783Z,10.2
2018-04-27T02:38:42.917Z,10.19
2018-04-27T02:39:09.079Z,10.19
2018-04-27T02:39:35.234Z,10.16
2018-04-27T02:40:01.370Z,10.15
2018-04-27T02:40:27.505Z,10.16
2018-04-27T02:40:53.712Z,10.15
2018-04-27T02:41:19.850Z,10.19
2018-04-27T02:41:46.014Z,10.19
2018-04-27T02:42:12.204Z,10.15
2018-04-27T02:42:38.357Z,10.16
2018-04-27T02:43:04.530Z,10.15
2018-04-27T02:43:30.682Z,10.15
2018-04-27T02:43:56.875Z,10.15
2018-04-27T02:44:23.008Z,10.13
2018-04-27T02:44:49.168Z,10.16
2018-04-27T02:45:15.335Z,10.17
2018-04-27T02:45:41.500Z,10.09
2018-04-27T02:46:07.706Z,10.05
2018-04-27T02:46:33.842Z,10.13
2018-04-27T02:47:00.024Z,10.09
2018-04-27T02:47:26.211Z,10.09
2018-04-27T02:47:52.365Z,10.09
2018-04-27T02:48:18.504Z,10.04
2018-04-27T02:48:44.682Z,10.01
2018-04-27T02:49:10.840Z,10.02
2018-04-27T02:49:37.005Z,10.07
2018-04-27T02:50:03.191Z,10.07
2018-04-27T02:50:29.352Z,10.13
2018-04-27T02:50:55.512Z,10.1
2018-04-27T02:51:21.648Z,10.01
2018-04-27T02:51:47.783Z,10.1
2018-04-27T02:52:13.941Z,10.05
2018-04-27T02:52:40.120Z,10.12
2018-04-27T02:53:06.308Z,10.12
2018-04-27T02:53:32.447Z,10.15
2018-04-27T02:53:58.585Z,10.15
2018-04-27T02:54:24.749Z,10.16
2018-04-27T02:54:50.909Z,9.99
2018-04-27T02:55:17.127Z,10.09
2018-04-27T02:55:43.235Z,10.04
2018-04-27T02:56:09.378Z,10.04
2018-04-27T02:56:35.508Z,10.02
2018-04-27T02:57:01.643Z,10.05
2018-04-27T02:57:27.810Z,10.15
2018-04-27T02:57:53.976Z,9.97
2018-04-27T02:58:20.120Z,10.05
2018-04-27T02:58:46.266Z,10.04
2018-04-27T02:59:12.432Z,10.12
2018-04-27T02:59:38.569Z,10.02
2018-04-27T03:00:04.705Z,10.01
2018-04-27T03:00:30.841Z,10.15
2018-04-27T03:00:56.983Z,10.15
2018-04-27T03:01:23.169Z,10.13
2018-04-27T03:01:49.311Z,10.15
2018-04-27T03:02:15.447Z,10.12
2018-04-27T03:02:41.606Z,10.1
2018-04-27T03:03:07.753Z,10.16
2018-04-27T03:03:33.915Z,10.16
2018-04-27T03:04:00.055Z,10.13
2018-04-27T03:04:26.264Z,10.13
2018-04-27T03:04:52.404Z,10.16
2018-04-27T03:05:18.563Z,10.13
2018-04-27T03:05:44.708Z,10.1
2018-04-27T03:06:10.844Z,10.12
2018-04-27T03:06:37.010Z,10.17
2018-04-27T03:07:03.244Z,10.13
2018-04-27T03:07:29.331Z,10.15
2018-04-27T03:07:55.541Z,10.19
2018-04-27T03:08:21.674Z,10.17
2018-04-27T03:08:47.840Z,10.2
2018-04-27T03:09:14.001Z,10.13
2018-04-27T03:09:40.165Z,10.13
2018-04-27T03:10:06.326Z,10.16
2018-04-27T03:10:32.484Z,10.16
2018-04-27T03:10:58.620Z,10.15
2018-04-27T03:11:24.782Z,10.19
2018-04-27T03:11:50.910Z,10.15
2018-04-27T03:12:17.047Z,10.19
2018-04-27T03:12:43.197Z,10.07
2018-04-27T03:13:09.352Z,10.19
2018-04-27T03:13:35.484Z,10.16
2018-04-27T03:14:01.625Z,10.1
2018-04-27T03:14:27.805Z,10.16
2018-04-27T03:14:53.935Z,10.2
2018-04-27T03:15:20.070Z,10.2
2018-04-27T03:15:46.254Z,10.23
2018-04-27T03:16:12.391Z,10.22
2018-04-27T03:16:38.569Z,10.22
2018-04-27T03:17:04.707Z,10.17
2018-04-27T03:17:30.845Z,10.16
2018-04-27T03:17:56.989Z,10.16
2018-04-27T03:18:23.114Z,10.19
2018-04-27T03:18:49.247Z,10.12
2018-04-27T03:19:15.391Z,10.16
2018-04-27T03:19:41.528Z,10.13
2018-04-27T03:20:07.691Z,10.02
2018-04-27T03:20:33.822Z,10.1
2018-04-27T03:20:59.963Z,10.15
2018-04-27T03:21:26.092Z,10.05
2018-04-27T03:21:52.258Z,10.05
2018-04-27T03:22:18.392Z,10.16
2018-04-27T03:22:44.532Z,10.04
2018-04-27T03:23:10.703Z,10.13
2018-04-27T03:23:36.928Z,10.07
2018-04-27T03:24:03.119Z,10.02
2018-04-27T03:24:29.182Z,10.09
2018-04-27T03:24:55.319Z,10.07
2018-04-27T03:25:21.454Z,10.1
2018-04-27T03:25:47.644Z,10.05
2018-04-27T03:26:13.782Z,9.99
2018-04-27T03:26:39.921Z,9.98
2018-04-27T03:27:06.054Z,10.02
2018-04-27T03:27:32.190Z,9.99
2018-04-27T03:27:58.324Z,9.99
2018-04-27T03:28:24.472Z,9.95
2018-04-27T03:28:50.627Z,9.95
2018-04-27T03:29:16.764Z,9.99
2018-04-27T03:29:42.926Z,9.97
2018-04-27T03:30:09.089Z,9.98
2018-04-27T03:30:35.274Z,9.91
2018-04-27T03:31:01.479Z,9.84
2018-04-27T03:31:27.694Z,9.94
2018-04-27T03:31:53.874Z,9.83
2018-04-27T03:32:20.085Z,9.94
2018-04-27T03:32:46.237Z,9.87
2018-04-27T03:33:12.373Z,9.89
2018-04-27T03:33:38.515Z,9.92
2018-04-27T03:34:04.667Z,9.84
2018-04-27T03:34:30.805Z,9.89
2018-04-27T03:34:56.935Z,9.97
2018-04-27T03:35:23.092Z,9.97
2018-04-27T03:35:49.224Z,9.98
2018-04-27T03:36:15.365Z,9.99
2018-04-27T03:36:41.499Z,9.95
2018-04-27T03:37:07.631Z,9.97
2018-04-27T03:37:33.792Z,9.95
2018-04-27T03:37:59.924Z,9.99
2018-04-27T03:38:26.084Z,9.91
2018-04-27T03:38:52.217Z,9.92
2018-04-27T03:39:18.355Z,9.99
2018-04-27T03:39:44.494Z,10.04
2018-04-27T03:40:10.620Z,10.01
2018-04-27T03:40:36.760Z,10.09
2018-04-27T03:41:02.895Z,10.07
2018-04-27T03:41:29.036Z,10.04
2018-04-27T03:41:55.166Z,10.07
2018-04-27T03:42:21.306Z,10.07
2018-04-27T03:42:47.442Z,9.99
2018-04-27T03:43:13.586Z,9.95
2018-04-27T03:43:39.747Z,9.91
2018-04-27T03:44:05.885Z,10.02
2018-04-27T03:44:32.016Z,9.94
2018-04-27T03:44:58.158Z,10.07
2018-04-27T03:45:24.316Z,9.95
2018-04-27T03:45:50.431Z,9.97
2018-04-27T03:46:16.574Z,9.95
2018-04-27T03:46:42.731Z,9.95
2018-04-27T03:47:08.881Z,9.95
2018-04-27T03:47:35.013Z,9.97
2018-04-27T03:48:01.146Z,9.94
2018-04-27T03:48:27.281Z,9.91
2018-04-27T03:48:53.429Z,9.94
2018-04-27T03:49:19.587Z,9.92
2018-04-27T03:49:45.726Z,9.97
2018-04-27T03:50:11.866Z,10.02
2018-04-27T03:50:38.009Z,9.95
2018-04-27T03:51:04.146Z,9.95
2018-04-27T03:51:30.287Z,9.97
2018-04-27T03:51:56.507Z,9.91
2018-04-27T03:52:22.560Z,9.92
2018-04-27T03:52:48.720Z,9.89
2018-04-27T03:53:14.862Z,9.92
2018-04-27T03:53:40.995Z,9.95
2018-04-27T03:54:07.134Z,9.91
2018-04-27T03:54:33.272Z,9.83
2018-04-27T03:54:59.407Z,9.94
2018-04-27T03:55:25.541Z,9.94
2018-04-27T03:55:51.678Z,9.92
2018-04-27T03:56:17.820Z,9.95
2018-04-27T03:56:43.951Z,9.82
2018-04-27T03:57:10.092Z,9.83
2018-04-27T03:57:36.231Z,9.77
2018-04-27T03:58:02.364Z,9.86
2018-04-27T03:58:28.507Z,9.8
2018-04-27T03:58:54.667Z,9.83
2018-04-27T03:59:20.804Z,9.82
2018-04-27T03:59:46.938Z,9.84
2018-04-27T04:00:13.074Z,9.83
2018-04-27T04:00:39.212Z,9.76
2018-04-27T04:01:05.402Z,9.84
2018-04-27T04:01:31.479Z,9.8
2018-04-27T04:01:57.613Z,9.82
2018-04-27T04:02:23.748Z,9.84
2018-04-27T04:02:49.888Z,9.87
2018-04-27T04:03:16.047Z,9.8
2018-04-27T04:03:42.180Z,9.83
2018-04-27T04:04:08.319Z,9.79
2018-04-27T04:04:34.479Z,9.73
2018-04-27T04:05:00.615Z,9.83
2018-04-27T04:05:26.748Z,9.86
2018-04-27T04:05:52.882Z,9.79
2018-04-27T04:06:19.028Z,9.82
2018-04-27T04:06:45.164Z,9.77
2018-04-27T04:07:11.300Z,9.83
2018-04-27T04:07:37.435Z,9.72
2018-04-27T04:08:03.578Z,9.74
2018-04-27T04:08:29.711Z,9.73
2018-04-27T04:08:55.848Z,9.76
2018-04-27T04:09:21.981Z,9.68
2018-04-27T04:09:48.118Z,9.65
2018-04-27T04:10:14.259Z,9.72
2018-04-27T04:10:40.392Z,9.77
2018-04-27T04:11:06.529Z,9.72
2018-04-27T04:11:32.672Z,9.65
2018-04-27T04:11:58.816Z,9.66
2018-04-27T04:12:24.947Z,9.77
2018-04-27T04:12:51.093Z,9.76
2018-04-27T04:13:17.222Z,9.79
2018-04-27T04:13:43.408Z,9.73
2018-04-27T04:14:09.490Z,9.68
2018-04-27T04:14:35.651Z,9.69
2018-04-27T04:15:01.792Z,9.69
2018-04-27T04:15:27.925Z,9.65
2018-04-27T04:15:54.060Z,9.77
2018-04-27T04:16:20.193Z,9.8
2018-04-27T04:16:46.332Z,9.72
2018-04-27T04:17:12.470Z,9.73
2018-04-27T04:17:38.603Z,9.74
2018-04-27T04:18:04.739Z,9.79
2018-04-27T04:18:30.873Z,9.65
2018-04-27T04:18:57.010Z,9.82
2018-04-27T04:19:23.186Z,9.64
2018-04-27T04:19:49.325Z,9.73
2018-04-27T04:20:15.455Z,9.77
2018-04-27T04:20:41.594Z,9.73
2018-04-27T04:21:07.722Z,9.76
2018-04-27T04:21:33.911Z,9.8
2018-04-27T04:22:00.041Z,9.74
2018-04-27T04:22:26.187Z,9.73
2018-04-27T04:22:52.341Z,9.74
2018-04-27T04:23:18.472Z,9.83
2018-04-27T04:23:44.611Z,9.77
2018-04-27T04:24:10.766Z,9.84
2018-04-27T04:24:36.906Z,9.87
2018-04-27T04:25:03.042Z,9.86
2018-04-27T04:25:29.181Z,9.83
2018-04-27T04:25:55.321Z,9.82
2018-04-27T04:26:21.457Z,9.86
2018-04-27T04:26:47.633Z,9.76
2018-04-27T04:27:13.757Z,9.83
2018-04-27T04:27:39.938Z,9.83
2018-04-27T04:28:06.077Z,9.79
2018-04-27T04:28:32.217Z,9.8
2018-04-27T04:28:58.389Z,9.8
2018-04-27T04:29:24.527Z,9.8
2018-04-27T04:29:50.664Z,9.84
2018-04-27T04:30:16.801Z,9.82
2018-04-27T04:30:42.994Z,9.87
2018-04-27T04:31:09.126Z,9.94
2018-04-27T04:31:35.264Z,9.92
2018-04-27T04:32:01.398Z,9.91
2018-04-27T04:32:27.600Z,9.95
2018-04-27T04:32:53.680Z,9.79
2018-04-27T04:33:19.808Z,9.84
2018-04-27T04:33:45.948Z,9.84
2018-04-27T04:34:12.108Z,9.77
2018-04-27T04:34:38.243Z,9.91
2018-04-27T04:35:04.375Z,9.92
2018-04-27T04:35:30.511Z,9.97
2018-04-27T04:35:56.648Z,9.97
2018-04-27T04:36:22.796Z,9.94
2018-04-27T04:36:48.957Z,9.94
2018-04-27T04:37:15.120Z,9.97
2018-04-27T04:37:41.291Z,9.97
2018-04-27T04:38:07.434Z,9.95
2018-04-27T04:38:33.594Z,9.94
2018-04-27T04:38:59.720Z,9.97
2018-04-27T04:39:25.884Z,10.01
2018-04-27T04:39:52.018Z,9.95
2018-04-27T04:40:18.180Z,9.92
2018-04-27T04:40:44.318Z,9.92
2018-04-27T04:41:10.447Z,9.95
2018-04-27T04:41:36.595Z,9.94
2018-04-27T04:42:02.729Z,9.83
2018-04-27T04:42:28.892Z,9.95
2018-04-27T04:42:55.025Z,9.94
2018-04-27T04:43:21.149Z,9.89
2018-04-27T04:43:47.313Z,9.94
2018-04-27T04:44:13.452Z,9.94
2018-04-27T04:44:39.590Z,9.95
2018-04-27T04:45:05.744Z,9.99
2018-04-27T04:45:31.886Z,9.97
2018-04-27T04:45:58.016Z,9.98
2018-04-27T04:46:24.158Z,9.99
2018-04-27T04:46:50.289Z,9.98
2018-04-27T04:47:16.427Z,9.92
2018-04-27T04:47:42.614Z,9.92
2018-04-27T04:48:08.777Z,9.95
2018-04-27T04:48:34.908Z,9.95
2018-04-27T04:49:01.094Z,9.92
2018-04-27T04:49:27.231Z,9.92
2018-04-27T04:49:53.406Z,9.94
2018-04-27T04:50:19.556Z,9.97
2018-04-27T04:50:45.712Z,9.92
2018-04-27T04:51:11.844Z,9.82
2018-04-27T04:51:37.987Z,9.82
2018-04-27T04:52:04.124Z,9.83
2018-04-27T04:52:30.430Z,9.79
2018-04-27T04:52:56.441Z,9.94
2018-04-27T04:53:22.608Z,9.8
2018-04-27T04:53:48.751Z,9.94
2018-04-27T04:54:14.886Z,9.82
2018-04-27T04:54:41.022Z,9.82
2018-04-27T04:55:07.183Z,9.87
2018-04-27T04:55:33.316Z,9.84
2018-04-27T04:55:59.483Z,9.8
2018-04-27T04:56:25.645Z,9.82
2018-04-27T04:56:51.778Z,9.77
2018-04-27T04:57:17.920Z,9.79
2018-04-27T04:57:44.057Z,9.82
2018-04-27T04:58:10.194Z,9.83
2018-04-27T04:58:36.327Z,9.79
2018-04-27T04:59:02.464Z,9.83
2018-04-27T04:59:28.624Z,9.79
2018-04-27T04:59:54.783Z,9.82
2018-04-27T05:00:20.919Z,9.82
2018-04-27T05:00:47.056Z,9.83
2018-04-27T05:01:13.220Z,9.86
2018-04-27T05:01:39.376Z,9.94
2018-04-27T05:02:05.514Z,9.84
2018-04-27T05:02:31.677Z,9.89
2018-04-27T05:02:57.927Z,9.94
2018-04-27T05:03:23.984Z,9.97
2018-04-27T05:03:50.117Z,9.99
2018-04-27T05:04:16.258Z,9.97
2018-04-27T05:04:42.389Z,9.97
2018-04-27T05:05:08.524Z,9.99
2018-04-27T05:05:34.663Z,9.94
2018-04-27T05:06:00.793Z,10.02
2018-04-27T05:06:26.937Z,10.1
2018-04-27T05:06:53.075Z,10.01
2018-04-27T05:07:19.232Z,10.02
2018-04-27T05:07:45.365Z,10.04
2018-04-27T05:08:11.521Z,10.1
2018-04-27T05:08:37.642Z,9.99
2018-04-27T05:09:03.783Z,9.98
2018-04-27T05:09:29.916Z,10.02
2018-04-27T05:09:56.061Z,10.02
2018-04-27T05:10:22.194Z,10.12
2018-04-27T05:10:48.444Z,10.09
2018-04-27T05:11:14.499Z,10.07
2018-04-27T05:11:40.637Z,10.07
2018-04-27T05:12:06.776Z,10.07
2018-04-27T05:12:32.914Z,10.07
2018-04-27T05:12:59.049Z,10.09
2018-04-27T05:13:25.189Z,10.13
2018-04-27T05:13:51.326Z,10.09
2018-04-27T05:14:17.459Z,10.09
2018-04-27T05:14:43.599Z,10.13
2018-04-27T05:15:09.735Z,10.15
2018-04-27T05:15:35.869Z,10.15
2018-04-27T05:16:02.010Z,10.15
2018-04-27T05:16:28.143Z,10.16
2018-04-27T05:16:54.288Z,10.15
2018-04-27T05:17:20.446Z,10.16
2018-04-27T05:17:46.590Z,10.12
2018-04-27T05:18:12.748Z,10.2
2018-04-27T05:18:38.882Z,10.1
2018-04-27T05:19:05.023Z,10.12
2018-04-27T05:19:31.157Z,10.05
2018-04-27T05:19:57.315Z,10.12
2018-04-27T05:20:23.485Z,9.97
2018-04-27T05:20:49.641Z,10.04
2018-04-27T05:21:15.779Z,9.94
2018-04-27T05:21:41.945Z,9.97
2018-04-27T05:22:08.079Z,10.01
2018-04-27T05:22:34.223Z,9.99
2018-04-27T05:23:00.360Z,9.94
2018-04-27T05:23:26.490Z,10.02
2018-04-27T05:23:52.632Z,9.98
2018-04-27T05:24:18.875Z,9.97
2018-04-27T05:24:44.940Z,9.95
2018-04-27T05:25:11.100Z,9.91
2018-04-27T05:25:37.268Z,9.94
2018-04-27T05:26:03.397Z,10.04
2018-04-27T05:26:29.535Z,10.07
2018-04-27T05:26:55.676Z,10.01
2018-04-27T05:27:21.809Z,10.07
2018-04-27T05:27:47.953Z,10.04
2018-04-27T05:28:14.090Z,10.13
2018-04-27T05:28:40.226Z,10.1
2018-04-27T05:29:06.367Z,10.04
2018-04-27T05:29:32.501Z,10.04
2018-04-27T05:29:58.678Z,9.95
2018-04-27T05:30:24.820Z,10.02
2018-04-27T05:30:50.985Z,9.94
2018-04-27T05:31:17.113Z,10.04
2018-04-27T05:31:43.256Z,10.07
2018-04-27T05:32:09.394Z,10.07
2018-04-27T05:32:35.534Z,10.15
2018-04-27T05:33:01.674Z,10.05
2018-04-27T05:33:27.813Z,10.13
2018-04-27T05:33:53.969Z,10.13
2018-04-27T05:34:20.105Z,10.16
2018-04-27T05:34:46.239Z,10.09
2018-04-27T05:35:12.413Z,10.12
2018-04-27T05:35:38.544Z,10.16
2018-04-27T05:36:04.684Z,10.19
2018-04-27T05:36:30.816Z,10.2
2018-04-27T05:36:56.983Z,10.2
2018-04-27T05:37:23.116Z,10.28
2018-04-27T05:37:49.256Z,10.3
2018-04-27T05:38:15.398Z,10.2
2018-04-27T05:38:41.531Z,10.33
2018-04-27T05:39:07.676Z,10.26
2018-04-27T05:39:33.804Z,10.23
2018-04-27T05:39:59.939Z,10.33
2018-04-27T05:40:26.081Z,10.31
2018-04-27T05:40:52.211Z,10.33
2018-04-27T05:41:18.352Z,10.26
2018-04-27T05:41:44.485Z,10.25